createdAt,value
2022-08-06T00:00:03.085Z,96822.84
2022-08-06T00:02:28.438Z,96827.03
2022-08-06T00:05:01.451Z,96823.16
2022-08-06T00:07:45.061Z,96826.31
2022-08-06T00:10:18.598Z,96830.59
2022-08-06T00:12:48.225Z,96835.88
2022-08-06T00:15:20.043Z,96830.47
2022-08-06T00:18:06.348Z,96849.50
2022-08-06T00:20:33.398Z,96853.28
2022-08-06T00:23:16.363Z,96857.88
2022-08-06T00:25:52.590Z,96852.81
2022-08-06T00:28:30.949Z,96861.19
2022-08-06T00:31:06.238Z,96858.56
2022-08-06T00:33:44.441Z,96866.59
2022-08-06T00:36:28.363Z,96873.44
2022-08-06T00:39:00.669Z,96874.75
2022-08-06T00:41:42.076Z,96877.00
2022-08-06T00:44:14.493Z,96877.69
2022-08-06T00:46:42.813Z,96882.06
2022-08-06T00:49:12.051Z,96888.63
2022-08-06T00:51:50.242Z,96885.97
2022-08-06T00:54:27.445Z,96888.78
2022-08-06T00:57:06.839Z,96891.91
2022-08-06T00:59:37.222Z,96880.81
2022-08-06T01:02:04.851Z,96879.09
2022-08-06T01:04:37.325Z,96880.22
2022-08-06T01:07:05.487Z,96871.63
2022-08-06T01:09:57.171Z,96876.88
2022-08-06T01:12:31.829Z,96867.72
2022-08-06T01:15:02.624Z,96867.81
2022-08-06T01:17:42.579Z,96859.69
2022-08-06T01:21:59.355Z,96865.66
2022-08-06T01:23:53.650Z,96858.19
2022-08-06T01:26:38.813Z,96848.31
2022-08-06T01:29:34.727Z,96850.16
2022-08-06T01:32:14.376Z,96853.28
2022-08-06T01:34:56.196Z,96852.88
2022-08-06T01:37:38.305Z,96858.41
2022-08-06T01:40:13.377Z,96860.06
2022-08-06T01:42:44.406Z,96858.78
2022-08-06T01:45:42.313Z,96865.53
2022-08-06T01:48:28.648Z,96859.69
2022-08-06T01:51:02.495Z,96857.97
2022-08-06T01:53:56.760Z,96847.38
2022-08-06T01:56:33.949Z,96853.53
2022-08-06T01:59:21.439Z,96846.56
2022-08-06T02:01:55.314Z,96845.28
2022-08-06T02:04:27.689Z,96852.66
2022-08-06T02:06:56.859Z,96849.00
2022-08-06T02:09:33.649Z,96857.59
2022-08-06T02:12:25.153Z,96858.69
2022-08-06T02:14:57.208Z,96848.59
2022-08-06T02:17:53.932Z,96859.00
2022-08-06T02:20:37.340Z,96849.13
2022-08-06T02:23:09.483Z,96852.59
2022-08-06T02:25:42.609Z,96853.44
2022-08-06T02:28:21.353Z,96856.56
2022-08-06T02:30:56.736Z,96857.97
2022-08-06T02:33:32.494Z,96854.22
2022-08-06T02:36:26.630Z,96859.69
2022-08-06T02:39:04.853Z,96854.53
2022-08-06T02:42:05.188Z,96855.97
2022-08-06T02:45:04.271Z,96858.44
2022-08-06T02:48:22.299Z,96864.34
2022-08-06T02:51:43.252Z,96854.47
2022-08-06T02:54:18.950Z,96862.31
2022-08-06T02:56:48.352Z,96861.31
2022-08-06T02:59:22.590Z,96864.03
2022-08-06T03:01:59.363Z,96864.66
2022-08-06T03:04:32.604Z,96860.41
2022-08-06T03:07:27.535Z,96868.69
2022-08-06T03:09:58.886Z,96876.97
2022-08-06T03:12:39.213Z,96875.09
2022-08-06T03:15:13.756Z,96871.63
2022-08-06T03:17:45.589Z,96866.50
2022-08-06T03:20:17.746Z,96873.53
2022-08-06T03:22:48.609Z,96875.00
2022-08-06T03:25:17.761Z,96873.97
2022-08-06T03:27:46.354Z,96877.50
2022-08-06T03:30:31.543Z,96883.56
2022-08-06T03:33:07.553Z,96886.38
2022-08-06T03:35:51.814Z,96886.56
2022-08-06T03:38:28.766Z,96890.75
2022-08-06T03:40:58.455Z,96883.19
2022-08-06T03:43:27.363Z,96894.50
2022-08-06T03:46:02.178Z,96896.44
2022-08-06T03:48:38.746Z,96889.16
2022-08-06T03:51:12.999Z,96892.19
2022-08-06T03:53:46.902Z,96890.16
2022-08-06T03:56:28.926Z,96897.28
2022-08-06T03:59:04.544Z,96897.28
2022-08-06T04:01:43.049Z,96906.81
2022-08-06T04:04:27.061Z,96909.66
2022-08-06T04:07:00.446Z,96920.47
2022-08-06T04:09:33.335Z,96923.31
2022-08-06T04:12:58.861Z,96925.00
2022-08-06T04:15:09.202Z,96927.75
2022-08-06T04:17:40.990Z,96935.69
2022-08-06T04:20:17.475Z,96935.50
2022-08-06T04:23:09.745Z,96943.75
2022-08-06T04:25:49.366Z,96955.09
2022-08-06T04:28:18.747Z,96960.59
2022-08-06T04:30:50.399Z,96965.47
2022-08-06T04:33:21.541Z,96962.38
2022-08-06T04:36:23.970Z,96956.88
2022-08-06T04:38:52.212Z,96959.94
2022-08-06T04:41:20.214Z,96964.81
2022-08-06T04:43:52.225Z,96964.72
2022-08-06T04:46:21.922Z,96976.66
2022-08-06T04:48:53.761Z,96983.31
2022-08-06T04:52:36.816Z,96987.97
2022-08-06T04:54:14.488Z,96991.44
2022-08-06T04:56:50.066Z,96993.25
2022-08-06T04:59:18.283Z,96998.25
2022-08-06T05:01:57.075Z,96989.75
2022-08-06T05:04:32.412Z,96992.09
2022-08-06T05:07:22.856Z,96994.53
2022-08-06T05:09:54.223Z,97002.75
2022-08-06T05:12:40.345Z,97008.53
2022-08-06T05:15:41.833Z,96994.53
2022-08-06T05:19:21.121Z,97011.19
2022-08-06T05:22:06.060Z,97006.91
2022-08-06T05:24:15.917Z,97019.19
2022-08-06T05:26:43.493Z,97020.72
2022-08-06T05:29:11.973Z,97027.88
2022-08-06T05:31:46.250Z,97029.03
2022-08-06T05:34:14.832Z,97025.69
2022-08-06T05:36:42.114Z,97037.97
2022-08-06T05:39:10.834Z,97043.63
2022-08-06T05:41:59.789Z,97042.81
2022-08-06T05:44:29.613Z,97043.94
2022-08-06T05:47:04.993Z,97040.47
2022-08-06T05:49:58.639Z,97041.41
2022-08-06T05:52:48.453Z,97038.72
2022-08-06T05:55:38.602Z,97042.31
2022-08-06T05:58:15.989Z,97048.34
2022-08-06T06:00:46.660Z,97052.72
2022-08-06T06:03:24.990Z,97055.41
2022-08-06T06:06:15.954Z,97066.06
2022-08-06T06:08:57.840Z,97063.50
2022-08-06T06:11:54.847Z,97071.03
2022-08-06T06:14:38.752Z,97072.19
2022-08-06T06:17:39.549Z,97078.25
2022-08-06T06:21:03.704Z,97093.00
2022-08-06T06:23:55.539Z,97090.34
2022-08-06T06:26:45.821Z,97092.47
2022-08-06T06:30:06.028Z,97095.13
2022-08-06T06:32:41.223Z,97097.56
2022-08-06T06:35:36.905Z,97107.03
2022-08-06T06:38:31.547Z,97107.78
2022-08-06T06:41:19.822Z,97118.53
2022-08-06T06:44:03.849Z,97110.81
2022-08-06T06:46:47.971Z,97129.00
2022-08-06T06:50:00.524Z,97132.63
2022-08-06T06:52:41.108Z,97128.06
2022-08-06T06:55:52.246Z,97125.38
2022-08-06T06:58:33.733Z,97129.34
2022-08-06T07:01:11.852Z,97139.94
2022-08-06T07:03:50.953Z,97133.59
2022-08-06T07:06:30.892Z,97141.03
2022-08-06T07:09:15.226Z,97137.56
2022-08-06T07:12:02.350Z,97140.13
2022-08-06T07:14:34.460Z,97123.03
2022-08-06T07:17:59.547Z,97134.78
2022-08-06T07:19:55.384Z,97134.56
2022-08-06T07:22:26.139Z,97126.31
2022-08-06T07:25:02.212Z,97130.63
2022-08-06T07:27:55.630Z,97146.84
2022-08-06T07:30:25.875Z,97150.09
2022-08-06T07:32:53.327Z,97145.34
2022-08-06T07:35:21.673Z,97140.59
2022-08-06T07:37:58.170Z,97153.25
2022-08-06T07:40:33.039Z,97153.59
2022-08-06T07:43:34.992Z,97151.25
2022-08-06T07:46:07.512Z,97160.81
2022-08-06T07:48:52.365Z,97159.63
2022-08-06T07:51:34.368Z,97168.81
2022-08-06T07:54:06.844Z,97168.94
2022-08-06T07:56:39.504Z,97170.06
2022-08-06T07:59:11.929Z,97172.53
2022-08-06T08:01:49.724Z,97172.53
2022-08-06T08:04:51.760Z,97188.75
2022-08-06T08:07:37.838Z,97181.56
2022-08-06T08:10:10.434Z,97183.06
2022-08-06T08:12:38.370Z,97179.84
2022-08-06T08:15:18.261Z,97177.50
2022-08-06T08:17:56.591Z,97177.97
2022-08-06T08:20:33.640Z,97178.19
2022-08-06T08:23:04.327Z,97176.34
2022-08-06T08:25:40.293Z,97174.94
2022-08-06T08:28:11.057Z,97180.53
2022-08-06T08:30:40.938Z,97180.94
2022-08-06T08:33:11.134Z,97186.19
2022-08-06T08:35:39.177Z,97189.72
2022-08-06T08:38:15.961Z,97192.22
2022-08-06T08:40:46.214Z,97194.69
2022-08-06T08:43:24.355Z,97191.84
2022-08-06T08:46:12.368Z,97191.53
2022-08-06T08:48:39.851Z,97186.22
2022-08-06T08:51:13.776Z,97188.34
2022-08-06T08:53:58.507Z,97184.91
2022-08-06T08:57:11.645Z,97192.28
2022-08-06T08:59:59.740Z,97197.22
2022-08-06T09:02:01.438Z,97195.53
2022-08-06T09:04:29.220Z,97194.91
2022-08-06T09:06:56.993Z,97198.09
2022-08-06T09:09:30.048Z,97199.47
2022-08-06T09:12:04.434Z,97206.13
2022-08-06T09:14:47.353Z,97209.69
2022-08-06T09:17:18.105Z,97216.03
2022-08-06T09:20:02.347Z,97212.00
2022-08-06T09:22:29.353Z,97205.59
2022-08-06T09:24:56.341Z,97215.91
2022-08-06T09:27:47.370Z,97213.41
2022-08-06T09:30:25.889Z,97212.13
2022-08-06T09:33:03.673Z,97216.25
2022-08-06T09:35:44.689Z,97210.84
2022-08-06T09:38:16.445Z,97213.38
2022-08-06T09:41:15.535Z,97212.03
2022-08-06T09:44:03.020Z,97220.00
2022-08-06T09:46:48.934Z,97221.03
2022-08-06T09:49:48.598Z,97221.16
2022-08-06T09:52:14.789Z,97221.28
2022-08-06T09:54:44.782Z,97224.19
2022-08-06T09:57:15.245Z,97220.88
2022-08-06T09:59:50.227Z,97222.88
2022-08-06T10:02:23.795Z,97223.56
2022-08-06T10:05:17.773Z,97227.47
2022-08-06T10:08:08.107Z,97229.13
2022-08-06T10:10:51.355Z,97229.38
2022-08-06T10:13:24.552Z,97228.88
2022-08-06T10:16:01.535Z,97226.53
2022-08-06T10:18:54.831Z,97241.78
2022-08-06T10:21:41.013Z,97233.47
2022-08-06T10:24:11.661Z,97236.84
2022-08-06T10:26:43.574Z,97229.50
2022-08-06T10:29:12.255Z,97229.22
2022-08-06T10:31:42.629Z,97241.94
2022-08-06T10:34:31.220Z,97246.94
2022-08-06T10:37:11.012Z,97242.88
2022-08-06T10:40:09.163Z,97241.06
2022-08-06T10:42:40.035Z,97231.72
2022-08-06T10:45:13.152Z,97235.41
2022-08-06T10:48:57.901Z,97237.34
2022-08-06T10:50:44.302Z,97231.88
2022-08-06T10:53:59.512Z,97227.97
2022-08-06T10:56:10.180Z,97222.84
2022-08-06T10:58:41.031Z,97234.22
2022-08-06T11:01:14.201Z,97228.66
2022-08-06T11:03:46.981Z,97239.56
2022-08-06T11:06:53.364Z,97228.03
2022-08-06T11:10:02.017Z,97225.88
2022-08-06T11:12:57.839Z,97222.66
2022-08-06T11:15:25.016Z,97219.06
2022-08-06T11:18:12.396Z,97226.00
2022-08-06T11:20:45.718Z,97219.63
2022-08-06T11:23:29.535Z,97226.53
2022-08-06T11:26:04.898Z,97217.44
2022-08-06T11:28:34.978Z,97215.34
2022-08-06T11:31:05.305Z,97216.13
2022-08-06T11:33:38.671Z,97224.69
2022-08-06T11:36:10.607Z,97217.28
2022-08-06T11:38:50.519Z,97216.31
2022-08-06T11:41:54.688Z,97207.44
2022-08-06T11:44:27.539Z,97213.03
2022-08-06T11:47:22.663Z,97213.03
2022-08-06T11:50:02.018Z,97216.53
2022-08-06T11:52:39.235Z,97211.84
2022-08-06T11:55:23.125Z,97205.84
2022-08-06T11:58:18.982Z,97206.88
2022-08-06T12:01:03.586Z,97199.84
2022-08-06T12:03:52.271Z,97196.63
2022-08-06T12:06:26.246Z,97203.66
2022-08-06T12:09:16.042Z,97209.03
2022-08-06T12:11:51.580Z,97195.16
2022-08-06T12:14:49.830Z,97212.25
2022-08-06T12:17:44.817Z,97206.38
2022-08-06T12:20:13.308Z,97207.84
2022-08-06T12:23:01.090Z,97199.03
2022-08-06T12:25:42.812Z,97199.16
2022-08-06T12:28:18.883Z,97197.81
2022-08-06T12:30:53.421Z,97196.78
2022-08-06T12:33:24.626Z,97196.28
2022-08-06T12:35:59.725Z,97192.78
2022-08-06T12:38:32.670Z,97192.03
2022-08-06T12:41:00.851Z,97188.00
2022-08-06T12:43:46.087Z,97186.16
2022-08-06T12:46:19.369Z,97192.09
2022-08-06T12:48:51.195Z,97192.16
2022-08-06T12:51:19.420Z,97192.19
2022-08-06T12:54:03.170Z,97181.41
2022-08-06T12:56:37.521Z,97184.69
2022-08-06T12:59:15.971Z,97179.28
2022-08-06T13:02:11.783Z,97189.00
2022-08-06T13:04:44.754Z,97195.50
2022-08-06T13:07:15.034Z,97188.00
2022-08-06T13:10:02.170Z,97177.16
2022-08-06T13:14:02.876Z,97184.47
2022-08-06T13:15:22.434Z,97190.13
2022-08-06T13:18:30.186Z,97187.44
2022-08-06T13:20:59.024Z,97186.53
2022-08-06T13:23:39.152Z,97186.88
2022-08-06T13:26:26.515Z,97185.28
2022-08-06T13:30:31.296Z,97176.09
2022-08-06T13:32:28.213Z,97173.34
2022-08-06T13:35:17.112Z,97169.22
2022-08-06T13:37:56.527Z,97167.38
2022-08-06T13:41:03.295Z,97166.06
2022-08-06T13:43:44.988Z,97163.84
2022-08-06T13:46:29.713Z,97163.16
2022-08-06T13:49:02.682Z,97162.59
2022-08-06T13:51:34.424Z,97162.06
2022-08-06T13:54:15.651Z,97167.84
2022-08-06T13:56:48.670Z,97162.69
2022-08-06T13:59:21.503Z,97158.34
2022-08-06T14:01:49.913Z,97153.69
2022-08-06T14:04:25.713Z,97156.38
2022-08-06T14:06:59.537Z,97158.59
2022-08-06T14:09:58.469Z,97162.34
2022-08-06T14:12:18.375Z,97161.28
2022-08-06T14:14:47.859Z,97156.13
2022-08-06T14:17:15.430Z,97146.41
2022-08-06T14:20:10.257Z,97144.56
2022-08-06T14:22:36.785Z,97142.25
2022-08-06T14:25:05.162Z,97141.22
2022-08-06T14:27:43.659Z,97156.66
2022-08-06T14:30:26.203Z,97148.44
2022-08-06T14:33:11.133Z,97153.38
2022-08-06T14:35:51.602Z,97148.50
2022-08-06T14:38:20.859Z,97141.78
2022-08-06T14:41:10.061Z,97147.69
2022-08-06T14:43:57.808Z,97145.84
2022-08-06T14:46:31.207Z,97136.66
2022-08-06T14:49:05.590Z,97137.56
2022-08-06T14:51:37.866Z,97139.81
2022-08-06T14:54:31.511Z,97135.56
2022-08-06T14:57:15.321Z,97141.66
2022-08-06T14:59:48.134Z,97135.53
2022-08-06T15:02:15.505Z,97133.69
2022-08-06T15:04:42.429Z,97133.19
2022-08-06T15:07:24.600Z,97127.03
2022-08-06T15:10:05.033Z,97121.78
2022-08-06T15:12:43.090Z,97123.47
2022-08-06T15:15:18.404Z,97123.41
2022-08-06T15:18:11.144Z,97121.69
2022-08-06T15:20:38.221Z,97120.25
2022-08-06T15:23:05.722Z,97112.19
2022-08-06T15:26:00.237Z,97113.25
2022-08-06T15:28:19.962Z,97111.28
2022-08-06T15:30:47.337Z,97107.97
2022-08-06T15:33:15.629Z,97105.34
2022-08-06T15:35:57.856Z,97111.38
2022-08-06T15:38:32.524Z,97102.09
2022-08-06T15:41:01.024Z,97114.06
2022-08-06T15:43:28.579Z,97109.22
2022-08-06T15:46:12.375Z,97106.59
2022-08-06T15:48:46.813Z,97116.81
2022-08-06T15:51:30.101Z,97113.56
2022-08-06T15:54:00.712Z,97113.09
2022-08-06T15:56:38.377Z,97120.13
2022-08-06T15:59:20.688Z,97118.50
2022-08-06T16:02:01.782Z,97124.72
2022-08-06T16:04:36.202Z,97118.78
2022-08-06T16:07:07.273Z,97115.00
2022-08-06T16:10:00.687Z,97105.59
2022-08-06T16:12:24.364Z,97108.81
2022-08-06T16:14:54.515Z,97105.84
2022-08-06T16:17:52.734Z,97109.94
2022-08-06T16:20:20.984Z,97112.34
2022-08-06T16:22:53.761Z,97109.13
2022-08-06T16:25:23.646Z,97109.69
2022-08-06T16:27:52.021Z,97110.44
2022-08-06T16:30:20.812Z,97109.81
2022-08-06T16:32:49.251Z,97114.16
2022-08-06T16:35:21.211Z,97110.44
2022-08-06T16:37:51.506Z,97108.28
2022-08-06T16:40:20.366Z,97111.50
2022-08-06T16:42:49.307Z,97104.50
2022-08-06T16:45:19.340Z,97115.22
2022-08-06T16:48:21.687Z,97101.28
2022-08-06T16:50:40.797Z,97093.16
2022-08-06T16:54:11.743Z,97093.72
2022-08-06T16:55:56.457Z,97093.47
2022-08-06T16:58:35.319Z,97091.59
2022-08-06T17:02:19.659Z,97087.28
2022-08-06T17:04:00.465Z,97081.91
2022-08-06T17:06:31.364Z,97080.84
2022-08-06T17:09:17.422Z,97090.00
2022-08-06T17:12:00.748Z,97079.78
2022-08-06T17:17:17.136Z,97078.69
2022-08-06T17:19:44.074Z,97083.25
2022-08-06T17:22:27.424Z,97082.47
2022-08-06T17:24:57.798Z,97080.31
2022-08-06T17:27:43.198Z,97077.63
2022-08-06T17:30:16.919Z,97080.88
2022-08-06T17:32:48.142Z,97079.22
2022-08-06T17:35:16.715Z,97076.06
2022-08-06T17:37:50.223Z,97077.91
2022-08-06T17:40:31.560Z,97072.63
2022-08-06T17:43:12.956Z,97079.03
2022-08-06T17:45:52.352Z,97073.09
2022-08-06T17:48:30.809Z,97066.59
2022-08-06T17:50:58.528Z,97062.38
2022-08-06T17:53:52.599Z,97078.56
2022-08-06T17:56:13.299Z,97075.88
2022-08-06T17:59:16.517Z,97070.50
2022-08-06T18:01:49.422Z,97075.06
2022-08-06T18:04:30.070Z,97080.69
2022-08-06T18:07:01.191Z,97089.22
2022-08-06T18:10:11.177Z,97080.25
2022-08-06T18:12:26.758Z,97081.00
2022-08-06T18:14:55.253Z,97078.31
2022-08-06T18:17:59.991Z,97086.88
2022-08-06T18:20:11.396Z,97093.88
2022-08-06T18:22:38.635Z,97098.66
2022-08-06T18:25:15.115Z,97100.28
2022-08-06T18:27:53.935Z,97098.06
2022-08-06T18:30:46.776Z,97103.59
2022-08-06T18:33:12.702Z,97108.59
2022-08-06T18:35:45.901Z,97118.91
2022-08-06T18:38:24.425Z,97116.84
2022-08-06T18:41:00.940Z,97102.78
2022-08-06T18:43:53.837Z,97110.75
2022-08-06T18:46:55.752Z,97115.00
2022-08-06T18:49:09.327Z,97123.00
2022-08-06T18:51:41.968Z,97114.91
2022-08-06T18:54:14.097Z,97115.94
2022-08-06T18:56:42.656Z,97121.94
2022-08-06T18:59:23.655Z,97127.19
2022-08-06T19:01:57.558Z,97134.31
2022-08-06T19:04:28.467Z,97135.22
2022-08-06T19:07:00.151Z,97129.25
2022-08-06T19:09:33.556Z,97127.63
2022-08-06T19:12:12.824Z,97136.16
2022-08-06T19:14:48.718Z,97147.38
2022-08-06T19:17:47.929Z,97142.75
2022-08-06T19:20:20.296Z,97138.53
2022-08-06T19:22:53.123Z,97145.47
2022-08-06T19:25:22.713Z,97134.66
2022-08-06T19:28:31.332Z,97145.38
2022-08-06T19:30:45.811Z,97141.63
2022-08-06T19:33:16.256Z,97142.34
2022-08-06T19:36:02.891Z,97143.09
2022-08-06T19:38:32.520Z,97145.19
2022-08-06T19:41:00.849Z,97137.75
2022-08-06T19:44:26.098Z,97145.19
2022-08-06T19:46:31.218Z,97139.03
2022-08-06T19:49:04.430Z,97140.75
2022-08-06T19:52:04.478Z,97143.44
2022-08-06T19:54:27.979Z,97143.44
2022-08-06T19:57:08.612Z,97147.56
2022-08-06T20:00:53.135Z,97139.53
2022-08-06T20:02:26.297Z,97148.28
2022-08-06T20:04:56.523Z,97144.88
2022-08-06T20:07:27.157Z,97154.47
2022-08-06T20:10:01.258Z,97152.84
2022-08-06T20:12:33.908Z,97152.00
2022-08-06T20:15:14.763Z,97147.19
2022-08-06T20:17:46.166Z,97159.16
2022-08-06T20:20:29.127Z,97158.03
2022-08-06T20:23:08.503Z,97155.94
2022-08-06T20:26:10.517Z,97148.47
2022-08-06T20:29:09.593Z,97158.19
2022-08-06T20:31:21.004Z,97152.28
2022-08-06T20:33:58.097Z,97142.63
2022-08-06T20:36:29.197Z,97154.47
2022-08-06T20:38:57.259Z,97152.00
2022-08-06T20:41:57.006Z,97162.72
2022-08-06T20:44:11.740Z,97151.72
2022-08-06T20:47:00.862Z,97159.97
2022-08-06T20:49:47.791Z,97152.69
2022-08-06T20:52:17.907Z,97151.72
2022-08-06T20:54:51.462Z,97152.84
2022-08-06T20:57:27.560Z,97157.38
2022-08-06T20:59:59.730Z,97154.28
2022-08-06T21:02:32.131Z,97151.84
2022-08-06T21:05:14.386Z,97152.19
2022-08-06T21:07:57.806Z,97155.09
2022-08-06T21:10:31.005Z,97149.09
2022-08-06T21:13:08.328Z,97146.34
2022-08-06T21:15:56.250Z,97148.38
2022-08-06T21:18:26.208Z,97149.13
2022-08-06T21:20:56.060Z,97147.16
2022-08-06T21:23:42.099Z,97144.41
2022-08-06T21:26:16.291Z,97140.84
2022-08-06T21:28:52.512Z,97146.34
2022-08-06T21:31:24.300Z,97147.97
2022-08-06T21:33:54.436Z,97144.00
2022-08-06T21:36:25.926Z,97144.16
2022-08-06T21:38:55.461Z,97145.47
2022-08-06T21:41:30.068Z,97136.56
2022-08-06T21:44:17.765Z,97136.34
2022-08-06T21:46:49.983Z,97144.13
2022-08-06T21:49:57.910Z,97149.94
2022-08-06T21:52:05.189Z,97149.31
2022-08-06T21:54:33.757Z,97155.09
2022-08-06T21:57:02.220Z,97149.09
2022-08-06T21:59:46.156Z,97152.72
2022-08-06T22:02:26.202Z,97149.94
2022-08-06T22:04:59.583Z,97151.47
2022-08-06T22:08:07.078Z,97159.50
2022-08-06T22:10:19.367Z,97159.94
2022-08-06T22:13:15.708Z,97166.31
2022-08-06T22:15:46.811Z,97162.41
2022-08-06T22:18:28.218Z,97165.66
2022-08-06T22:20:59.426Z,97167.28
2022-08-06T22:23:30.212Z,97167.28
2022-08-06T22:26:00.663Z,97167.03
2022-08-06T22:28:34.270Z,97167.97
2022-08-06T22:31:08.608Z,97163.88
2022-08-06T22:33:58.581Z,97164.94
2022-08-06T22:36:34.323Z,97158.00
2022-08-06T22:39:07.349Z,97161.69
2022-08-06T22:41:42.843Z,97152.16
2022-08-06T22:44:31.131Z,97147.88
2022-08-06T22:47:04.944Z,97144.28
2022-08-06T22:49:36.624Z,97140.50
2022-08-06T22:52:05.666Z,97138.78
2022-08-06T22:54:58.347Z,97139.44
2022-08-06T22:57:24.365Z,97137.84
2022-08-06T23:00:11.582Z,97139.56
2022-08-06T23:02:39.208Z,97143.84
2022-08-06T23:05:13.939Z,97135.72
2022-08-06T23:07:43.403Z,97133.53
2022-08-06T23:10:20.935Z,97125.53
2022-08-06T23:12:48.185Z,97126.91
2022-08-06T23:15:30.478Z,97121.09
2022-08-06T23:18:08.233Z,97119.47
2022-08-06T23:20:42.417Z,97115.75
2022-08-06T23:23:09.609Z,97111.00
2022-08-06T23:26:00.427Z,97116.69
2022-08-06T23:28:28.383Z,97118.78
2022-08-06T23:30:56.333Z,97117.38
2022-08-06T23:33:23.193Z,97119.56
2022-08-06T23:35:50.863Z,97115.31
2022-08-06T23:38:32.147Z,97109.97
2022-08-06T23:41:15.916Z,97104.28
2022-08-06T23:43:49.620Z,97116.34
2022-08-06T23:46:17.190Z,97117.47
2022-08-06T23:48:51.503Z,97103.00
2022-08-06T23:52:01.174Z,97107.53
2022-08-06T23:54:15.987Z,97101.84
2022-08-06T23:56:53.956Z,97102.91
2022-08-06T23:59:44.002Z,97108.34
